Time;durP1;ratioP1;P1;durP2;ratioP2;P2;SDS_P1;SDS_P2;PMS_P1;PMS_P2;Temp;Humidity;BMP_temperature;BMP_pressure;BME280_temperature;BME280_humidity;BME280_pressure;Samples;Min_cycle;Max_cycle;Signal;HPM_P1;HPM_P2
2022/10/25 00:01:44;;;;;;;33.92;21.40;;;;;;;12.53;100.00;100064.23;1686805;83;25548;-69
2022/10/25 00:04:12;;;;;;;35.60;21.60;;;;;;;12.53;100.00;100065.59;1690202;84;25632;-67
2022/10/25 00:06:40;;;;;;;35.63;22.70;;;;;;;12.50;100.00;100058.92;1676035;84;25319;-67
2022/10/25 00:09:07;;;;;;;35.90;22.65;;;;;;;12.49;100.00;100060.59;1682998;84;27278;-67
2022/10/25 00:11:35;;;;;;;36.53;20.95;;;;;;;12.49;100.00;100062.74;1673639;85;25787;-67
2022/10/25 00:14:05;;;;;;;35.33;21.60;;;;;;;12.49;100.00;100064.67;1684264;83;25368;-69
2022/10/25 00:16:36;;;;;;;34.98;19.67;;;;;;;12.48;100.00;100069.84;1682687;84;26241;-69
2022/10/25 00:19:04;;;;;;;35.23;20.88;;;;;;;12.47;100.00;100067.70;1673564;85;25508;-68
2022/10/25 00:21:32;;;;;;;34.67;20.63;;;;;;;12.46;100.00;100066.67;1682667;83;27808;-68
2022/10/25 00:23:59;;;;;;;33.42;20.37;;;;;;;12.45;100.00;100065.10;1646656;85;25456;-68
2022/10/25 00:26:27;;;;;;;29.25;19.20;;;;;;;12.43;100.00;100070.84;1686971;84;25641;-68
2022/10/25 00:28:55;;;;;;;36.90;21.48;;;;;;;12.42;100.00;100075.23;1687019;83;25632;-68
2022/10/25 00:31:23;;;;;;;31.85;21.27;;;;;;;12.41;100.00;100079.88;1687019;84;25341;-68
2022/10/25 00:33:51;;;;;;;35.55;21.97;;;;;;;12.40;100.00;100083.70;1687685;84;27740;-67
2022/10/25 00:36:25;;;;;;;36.05;21.05;;;;;;;12.39;100.00;100094.30;1679529;84;25511;-67
2022/10/25 00:38:56;;;;;;;32.73;21.07;;;;;;;12.36;100.00;100090.91;1687582;83;25678;-68
2022/10/25 00:41:28;;;;;;;36.70;20.88;;;;;;;12.33;100.00;100090.98;1686288;84;25568;-68
2022/10/25 00:44:34;;;;;;;40.73;20.37;;;;;;;12.32;100.00;100091.31;1686037;83;25537;-68
2022/10/25 00:47:21;;;;;;;33.92;19.20;;;;;;;12.30;100.00;100088.92;1685336;84;29417;-68
2022/10/25 00:50:12;;;;;;;32.28;19.02;;;;;;;12.29;100.00;100094.66;1679518;84;25353;-68
2022/10/25 00:52:44;;;;;;;36.83;20.43;;;;;;;12.26;100.00;100082.56;1669045;84;25335;-69
2022/10/25 00:55:15;;;;;;;36.60;18.90;;;;;;;12.25;100.00;100086.39;1674933;85;25703;-69
2022/10/25 00:57:48;;;;;;;36.45;20.62;;;;;;;12.24;100.00;100078.03;1679285;85;25650;-69
2022/10/25 01:00:16;;;;;;;35.92;23.18;;;;;;;12.22;100.00;100077.55;1679355;82;27207;-67
2022/10/25 01:02:44;;;;;;;38.60;22.37;;;;;;;12.22;100.00;100077.55;1680049;85;25480;-68
2022/10/25 01:05:12;;;;;;;38.95;22.05;;;;;;;12.20;100.00;100078.44;1679406;85;25496;-67
2022/10/25 01:07:40;;;;;;;37.95;22.87;;;;;;;12.19;100.00;100084.99;1675095;83;26193;-68
2022/10/25 01:10:09;;;;;;;39.25;21.85;;;;;;;12.19;100.00;100084.17;1661312;86;25490;-67
2022/10/25 01:12:36;;;;;;;39.88;22.58;;;;;;;12.18;100.00;100088.81;1661413;85;27230;-67
2022/10/25 01:15:05;;;;;;;41.88;21.68;;;;;;;12.17;100.00;100085.06;1642948;85;25557;-67
2022/10/25 01:17:56;;;;;;;51.98;29.05;;;;;;;12.17;100.00;100074.22;1684207;85;25352;-67
2022/10/25 01:21:07;;;;;;;52.70;27.93;;;;;;;12.17;100.00;100068.80;1665131;84;25586;-68
2022/10/25 01:24:12;;;;;;;53.40;28.80;;;;;;;12.17;100.00;100067.44;1655346;83;25736;-67
2022/10/25 01:27:03;;;;;;;44.48;26.42;;;;;;;12.17;100.00;100074.22;1678948;85;27295;-68
2022/10/25 01:29:51;;;;;;;44.15;25.50;;;;;;;12.16;100.00;100074.79;1679181;84;25314;-68
2022/10/25 01:32:42;;;;;;;43.40;24.85;;;;;;;12.16;100.00;100074.79;1678626;83;25722;-68
2022/10/25 01:35:32;;;;;;;44.70;26.05;;;;;;;12.17;100.00;100075.58;1671587;83;25616;-68
2022/10/25 01:38:05;;;;;;;41.18;25.82;;;;;;;12.15;100.00;100083.47;1651972;85;25544;-68
2022/10/25 01:41:06;;;;;;;39.30;23.95;;;;;;;12.15;100.00;100093.52;1674336;84;27132;-68
2022/10/25 01:43:45;;;;;;;42.38;24.15;;;;;;;12.14;100.00;100081.89;1670604;85;27164;-68
2022/10/25 01:46:20;;;;;;;44.33;26.80;;;;;;;12.15;100.00;100084.82;1670942;85;25640;-68
2022/10/25 01:48:53;;;;;;;43.45;24.95;;;;;;;12.17;100.00;100081.00;1672730;83;25619;-66
2022/10/25 01:51:20;;;;;;;38.70;23.12;;;;;;;12.17;100.00;100084.50;1671493;85;25496;-66
2022/10/25 01:53:50;;;;;;;36.77;22.45;;;;;;;12.18;100.00;100082.60;1678714;83;27319;-66
2022/10/25 01:56:29;;;;;;;41.95;23.83;;;;;;;12.18;100.00;100080.68;1671038;85;25642;-66
2022/10/25 01:59:23;;;;;;;38.08;23.73;;;;;;;12.19;100.00;100082.82;1681323;83;25498;-67
2022/10/25 02:02:15;;;;;;;41.23;23.57;;;;;;;12.21;100.00;100084.64;1677787;85;25633;-67
2022/10/25 02:05:09;;;;;;;38.13;24.57;;;;;;;12.23;100.00;100080.50;1666540;84;25536;-67
2022/10/25 02:07:59;;;;;;;41.70;22.90;;;;;;;12.24;100.00;100079.93;1662763;85;27262;-67
2022/10/25 02:11:17;;;;;;;40.85;24.02;;;;;;;12.24;100.00;100087.52;1671968;85;26078;-68
2022/10/25 02:14:08;;;;;;;37.67;23.85;;;;;;;12.25;100.00;100076.11;1677281;83;25485;-68
2022/10/25 02:16:49;;;;;;;42.50;24.25;;;;;;;12.26;100.00;100077.69;1661380;85;25694;-67
2022/10/25 02:19:22;;;;;;;44.95;23.77;;;;;;;12.25;100.00;100076.90;1658942;84;25553;-67
2022/10/25 02:21:53;;;;;;;45.35;23.73;;;;;;;12.24;100.00;100075.33;1661693;86;27960;-67
2022/10/25 02:24:25;;;;;;;47.27;23.57;;;;;;;12.25;100.00;100077.47;1661607;86;25835;-68
2022/10/25 02:26:54;;;;;;;39.18;24.30;;;;;;;12.25;100.00;100086.39;1657953;86;25630;-67
2022/10/25 02:29:25;;;;;;;37.60;23.83;;;;;;;12.25;100.00;100085.03;1657534;86;32395;-68
2022/10/25 02:31:52;;;;;;;40.92;24.47;;;;;;;12.26;100.00;100083.11;1661657;86;25371;-67
2022/10/25 02:34:20;;;;;;;47.70;24.37;;;;;;;12.26;100.00;100077.69;1661646;86;27189;-67
2022/10/25 02:36:50;;;;;;;43.42;22.50;;;;;;;12.26;100.00;100081.21;1650752;86;25598;-67
2022/10/25 02:39:20;;;;;;;40.03;23.38;;;;;;;12.28;100.00;100081.67;1654482;84;25525;-67
2022/10/25 02:41:47;;;;;;;43.98;23.52;;;;;;;12.28;100.00;100076.82;1661646;86;25609;-68
2022/10/25 02:44:14;;;;;;;34.80;22.67;;;;;;;12.29;100.00;100074.33;1661747;84;25516;-67
2022/10/25 02:46:42;;;;;;;40.92;22.55;;;;;;;12.29;100.00;100077.86;1661545;86;27245;-68
2022/10/25 02:49:09;;;;;;;37.60;21.68;;;;;;;12.29;100.00;100077.86;1672245;85;25498;-67
2022/10/25 02:51:37;;;;;;;35.90;22.67;;;;;;;12.29;100.00;100077.86;1674009;85;25570;-67
2022/10/25 02:54:04;;;;;;;37.60;22.48;;;;;;;12.30;100.00;100070.50;1668431;84;27913;-67
2022/10/25 02:56:31;;;;;;;36.80;22.62;;;;;;;12.30;100.00;100064.52;1681821;85;25332;-67
2022/10/25 02:58:59;;;;;;;38.75;21.95;;;;;;;12.30;100.00;100068.58;1670690;85;27358;-67
2022/10/25 03:01:26;;;;;;;39.48;22.87;;;;;;;12.30;100.00;100056.38;1678095;84;25723;-67
2022/10/25 03:03:55;;;;;;;34.38;21.05;;;;;;;12.29;100.00;100048.56;1678457;83;25480;-67
2022/10/25 03:06:22;;;;;;;41.70;21.93;;;;;;;12.30;100.00;100057.73;1664718;85;25630;-67
2022/10/25 03:08:49;;;;;;;35.08;20.35;;;;;;;12.30;100.00;100050.95;1687115;84;25374;-68
2022/10/25 03:11:17;;;;;;;40.20;20.82;;;;;;;12.31;100.00;100051.20;1686760;84;27261;-67
2022/10/25 03:13:44;;;;;;;32.45;20.43;;;;;;;12.32;100.00;100043.28;1686699;83;25472;-67
2022/10/25 03:16:11;;;;;;;36.68;20.82;;;;;;;12.31;100.00;100030.86;1686967;84;25400;-67
2022/10/25 03:18:39;;;;;;;38.60;21.57;;;;;;;12.31;100.00;100030.86;1669993;84;25615;-67
2022/10/25 03:21:06;;;;;;;32.38;21.07;;;;;;;12.34;100.00;100044.31;1685529;83;25555;-67
2022/10/25 03:23:34;;;;;;;34.13;20.60;;;;;;;12.33;100.00;100040.03;1686502;84;29307;-67
2022/10/25 03:26:01;;;;;;;35.55;20.32;;;;;;;12.34;100.00;100047.02;1686829;84;25667;-67
2022/10/25 03:28:30;;;;;;;34.53;22.75;;;;;;;12.35;100.00;100049.20;1687631;84;25561;-67
2022/10/25 03:30:59;;;;;;;35.30;20.17;;;;;;;12.37;100.00;100046.95;1687151;83;33183;-67
2022/10/25 03:33:27;;;;;;;33.78;21.25;;;;;;;12.36;100.00;100043.98;1687005;84;25366;-67
2022/10/25 03:35:55;;;;;;;33.28;20.68;;;;;;;12.36;100.00;100043.98;1688080;83;27203;-67
2022/10/25 03:38:23;;;;;;;32.95;20.40;;;;;;;12.35;100.00;100035.63;1686852;83;25317;-67
2022/10/25 03:40:50;;;;;;;35.40;21.07;;;;;;;12.32;100.00;100024.87;1682206;83;25586;-67
2022/10/25 03:43:17;;;;;;;31.70;20.48;;;;;;;12.31;100.00;100030.86;1680710;84;25669;-67
2022/10/25 03:45:44;;;;;;;40.03;21.75;;;;;;;12.29;100.00;100028.22;1686361;84;25554;-67
2022/10/25 03:48:14;;;;;;;35.88;20.88;;;;;;;12.28;100.00;100032.08;1688307;83;27809;-67
2022/10/25 03:50:42;;;;;;;35.60;21.62;;;;;;;12.27;100.00;100028.55;1678191;83;25590;-67
2022/10/25 03:53:10;;;;;;;35.92;21.57;;;;;;;12.26;100.00;100026.16;1679557;82;25326;-67
2022/10/25 03:55:37;;;;;;;34.98;20.17;;;;;;;12.25;100.00;100025.38;1691724;82;26290;-67
2022/10/25 03:58:05;;;;;;;34.73;21.57;;;;;;;12.25;100.00;100034.08;1691786;83;25544;-67
2022/10/25 04:00:34;;;;;;;35.45;20.10;;;;;;;12.23;100.00;100043.89;1691844;84;27270;-67
2022/10/25 04:03:02;;;;;;;33.83;20.65;;;;;;;12.24;100.00;100037.90;1692019;84;33213;-67
2022/10/25 04:05:31;;;;;;;35.00;20.43;;;;;;;12.22;100.00;100036.08;1684760;84;25360;-67
2022/10/25 04:07:59;;;;;;;30.32;20.50;;;;;;;12.21;100.00;100043.43;1685023;83;25550;-67
2022/10/25 04:10:26;;;;;;;37.75;21.02;;;;;;;12.23;100.00;100052.03;1684911;83;25485;-67
2022/10/25 04:12:54;;;;;;;37.55;21.97;;;;;;;12.20;100.00;100044.54;1684928;85;27851;-67
2022/10/25 04:15:22;;;;;;;34.92;20.20;;;;;;;12.19;100.00;100047.03;1676356;85;25577;-67
2022/10/25 04:17:52;;;;;;;36.17;19.23;;;;;;;12.18;100.00;100045.43;1665083;84;25392;-67
2022/10/25 04:20:21;;;;;;;37.03;21.77;;;;;;;12.18;100.00;100039.22;1684692;84;26345;-67
2022/10/25 04:22:56;;;;;;;40.92;22.65;;;;;;;12.18;100.00;100043.29;1684901;83;25733;-67
2022/10/25 04:25:25;;;;;;;35.95;21.95;;;;;;;12.18;100.00;100041.93;1684864;85;27404;-67
2022/10/25 04:27:53;;;;;;;38.60;21.85;;;;;;;12.17;100.00;100044.40;1684819;83;25759;-67
2022/10/25 04:30:21;;;;;;;34.50;21.45;;;;;;;12.15;100.00;100041.44;1684901;84;25544;-67
2022/10/25 04:32:48;;;;;;;41.60;23.52;;;;;;;12.15;100.00;100042.80;1684778;85;26484;-67
2022/10/25 04:35:16;;;;;;;41.13;22.48;;;;;;;12.17;100.00;100041.12;1672514;85;25525;-67
2022/10/25 04:37:43;;;;;;;49.95;23.10;;;;;;;12.17;100.00;100038.97;1678884;83;27473;-67
2022/10/25 04:40:12;;;;;;;39.95;22.58;;;;;;;12.16;100.00;100032.77;1684901;83;25319;-67
2022/10/25 04:42:40;;;;;;;37.48;21.85;;;;;;;12.16;100.00;100035.48;1685052;85;25513;-68
2022/10/25 04:45:08;;;;;;;37.65;21.82;;;;;;;12.17;100.00;100041.69;1685012;85;25780;-67
2022/10/25 04:47:36;;;;;;;44.13;22.10;;;;;;;12.16;100.00;100039.55;1685002;85;25582;-67
2022/10/25 04:50:05;;;;;;;43.70;22.37;;;;;;;12.16;100.00;100035.48;1667452;85;27240;-67
2022/10/25 04:52:32;;;;;;;38.92;22.32;;;;;;;12.17;100.00;100035.70;1672317;85;25474;-67
2022/10/25 04:55:00;;;;;;;39.65;21.07;;;;;;;12.16;100.00;100031.41;1674587;85;25456;-67
2022/10/25 04:57:27;;;;;;;37.42;21.52;;;;;;;12.19;100.00;100040.80;1668354;85;25650;-67
2022/10/25 04:59:56;;;;;;;39.95;21.73;;;;;;;12.20;100.00;100035.62;1677378;85;25358;-67
2022/10/25 05:02:23;;;;;;;36.38;20.57;;;;;;;12.20;100.00;100028.84;1677231;85;27836;-67
2022/10/25 05:04:51;;;;;;;38.95;21.20;;;;;;;12.21;100.00;100029.88;1677200;84;25635;-67
2022/10/25 05:07:19;;;;;;;37.00;22.35;;;;;;;12.20;100.00;100033.69;1659486;85;25507;-67
2022/10/25 05:09:47;;;;;;;35.03;21.50;;;;;;;12.21;100.00;100033.94;1670212;85;25490;-68
2022/10/25 05:12:15;;;;;;;34.25;20.35;;;;;;;12.21;100.00;100033.13;1671452;84;25658;-66
2022/10/25 05:14:43;;;;;;;33.88;19.85;;;;;;;12.20;100.00;100027.48;1676995;84;27286;-68
2022/10/25 05:17:10;;;;;;;35.85;20.12;;;;;;;12.21;100.00;100036.65;1677049;85;25416;-67
2022/10/25 05:19:37;;;;;;;31.77;18.52;;;;;;;12.21;100.00;100035.30;1677237;84;25321;-67
2022/10/25 05:22:05;;;;;;;29.90;17.40;;;;;;;12.23;100.00;100039.04;1677050;85;25670;-67
2022/10/25 05:24:32;;;;;;;39.08;20.15;;;;;;;12.23;100.00;100039.83;1676403;85;25314;-67
2022/10/25 05:27:00;;;;;;;33.33;20.08;;;;;;;12.24;100.00;100035.19;1676996;85;27941;-67
2022/10/25 05:29:28;;;;;;;35.40;19.32;;;;;;;12.24;100.00;100033.83;1677055;85;25538;-71
2022/10/25 05:31:57;;;;;;;32.08;18.45;;;;;;;12.24;100.00;100033.83;1677203;85;25478;-67
2022/10/25 05:34:26;;;;;;;36.08;19.40;;;;;;;12.23;100.00;100041.18;1677467;84;26127;-67
2022/10/25 05:36:53;;;;;;;37.42;19.12;;;;;;;12.25;100.00;100051.14;1677150;85;25504;-67
2022/10/25 05:39:21;;;;;;;30.48;18.67;;;;;;;12.24;100.00;100050.92;1677115;85;26456;-67
2022/10/25 05:41:49;;;;;;;33.20;18.35;;;;;;;12.24;100.00;100055.53;1668820;85;25638;-67
2022/10/25 05:44:17;;;;;;;33.40;19.60;;;;;;;12.24;100.00;100055.53;1668484;85;25570;-67
2022/10/25 05:46:44;;;;;;;33.05;19.60;;;;;;;12.24;100.00;100059.05;1674050;85;27725;-67
2022/10/25 05:49:12;;;;;;;33.73;20.17;;;;;;;12.24;100.00;100060.95;1662806;84;25358;-67
2022/10/25 05:51:39;;;;;;;32.73;20.10;;;;;;;12.24;100.00;100058.23;1677137;85;27211;-67
2022/10/25 05:54:11;;;;;;;35.58;19.87;;;;;;;12.23;100.00;100069.66;1679259;85;25691;-67
2022/10/25 05:56:40;;;;;;;36.85;19.77;;;;;;;12.23;100.00;100079.14;1683002;83;25671;-67
2022/10/25 05:59:11;;;;;;;35.90;20.55;;;;;;;12.23;100.00;100076.44;1686245;83;25644;-67
2022/10/25 06:01:43;;;;;;;31.97;19.85;;;;;;;12.23;100.00;100081.07;1679205;85;25321;-67
2022/10/25 06:04:12;;;;;;;36.35;22.52;;;;;;;12.25;100.00;100078.82;1664855;85;27216;-67
2022/10/25 06:06:41;;;;;;;34.90;20.08;;;;;;;12.26;100.00;100080.39;1679394;85;25471;-67
2022/10/25 06:09:09;;;;;;;34.58;21.07;;;;;;;12.28;100.00;100079.53;1675979;85;25629;-67
2022/10/25 06:11:38;;;;;;;38.95;21.57;;;;;;;12.27;100.00;100082.78;1673454;85;25774;-67
2022/10/25 06:14:08;;;;;;;37.55;21.42;;;;;;;12.27;100.00;100084.14;1713522;82;25471;-67
2022/10/25 06:16:36;;;;;;;38.05;21.05;;;;;;;12.29;100.00;100094.13;1653569;85;28153;-67
2022/10/25 06:19:04;;;;;;;34.83;19.70;;;;;;;12.30;100.00;100085.42;1649270;86;25676;-68
2022/10/25 06:21:31;;;;;;;37.42;21.10;;;;;;;12.32;100.00;100093.45;1657775;85;25370;-67
2022/10/25 06:23:59;;;;;;;35.30;21.55;;;;;;;12.34;100.00;100094.48;1657734;85;25749;-67
2022/10/25 06:26:29;;;;;;;43.25;21.73;;;;;;;12.36;100.00;100086.84;1657855;86;25526;-67
2022/10/25 06:29:00;;;;;;;39.80;22.37;;;;;;;12.38;100.00;100093.27;1655939;85;27254;-68
2022/10/25 06:31:29;;;;;;;44.70;23.62;;;;;;;12.40;100.00;100099.97;1594716;89;27186;-68
2022/10/25 06:34:00;;;;;;;49.23;28.90;;;;;;;12.39;100.00;100097.02;1645911;85;32451;-68
2022/10/25 06:36:30;;;;;;;50.10;27.98;;;;;;;12.41;100.00;100100.22;1641541;85;25662;-68
2022/10/25 06:38:58;;;;;;;47.15;25.00;;;;;;;12.41;100.00;100106.19;1632803;86;25547;-68
2022/10/25 06:41:27;;;;;;;44.10;25.00;;;;;;;12.42;100.00;100107.22;1614515;88;27327;-68
2022/10/25 06:43:55;;;;;;;52.58;24.95;;;;;;;12.44;100.00;100104.97;1623716;86;25528;-68
2022/10/25 06:46:31;;;;;;;51.35;24.05;;;;;;;12.46;100.00;100106.00;1646289;85;25461;-68
2022/10/25 06:49:04;;;;;;;44.38;24.80;;;;;;;12.50;100.00;100106.39;1640973;85;25994;-68
2022/10/25 06:51:32;;;;;;;44.90;24.85;;;;;;;12.52;100.00;100104.71;1643859;86;25645;-68
2022/10/25 06:54:07;;;;;;;44.00;25.88;;;;;;;12.54;100.00;100098.96;1629567;87;27762;-67
2022/10/25 06:56:43;;;;;;;55.73;24.50;;;;;;;12.56;100.00;100105.64;1626728;87;25524;-68
2022/10/25 06:59:19;;;;;;;41.30;24.52;;;;;;;12.57;100.00;100095.60;1522326;92;25329;-67
2022/10/25 07:01:47;;;;;;;47.75;25.10;;;;;;;12.59;100.00;100096.06;1520997;93;25683;-66
2022/10/25 07:04:15;;;;;;;43.35;24.72;;;;;;;12.63;100.00;100097.80;1520883;93;25679;-66
2022/10/25 07:06:43;;;;;;;44.25;23.55;;;;;;;12.65;100.00;100099.62;1521121;93;27339;-65
2022/10/25 07:09:12;;;;;;;45.15;25.02;;;;;;;12.71;100.00;100086.66;1520933;92;25249;-67
2022/10/25 07:11:39;;;;;;;41.20;24.63;;;;;;;12.75;100.00;100082.72;1521171;93;25772;-68
2022/10/25 07:14:09;;;;;;;49.58;26.48;;;;;;;12.78;100.00;100090.21;1520875;93;25714;-68
2022/10/25 07:16:36;;;;;;;;;;;;;;;12.82;100.00;100086.52;1522442;93;25627;-67
2022/10/25 07:19:04;;;;;;;43.38;25.25;;;;;;;12.87;100.00;100086.33;1520707;93;27319;-67
2022/10/25 07:21:33;;;;;;;50.45;27.55;;;;;;;12.92;100.00;100082.60;1520902;93;25798;-67
2022/10/25 07:24:01;;;;;;;49.63;28.32;;;;;;;12.95;100.00;100082.52;1521086;92;25832;-68
2022/10/25 07:26:35;;;;;;;48.85;26.25;;;;;;;12.96;100.00;100091.70;1521207;93;26354;-68
2022/10/25 07:29:03;;;;;;;44.55;24.82;;;;;;;12.97;100.00;100086.48;1521113;93;25704;-68
2022/10/25 07:31:36;;;;;;;47.70;25.27;;;;;;;12.99;100.00;100089.69;1521315;93;27659;-68
2022/10/25 07:34:05;;;;;;;45.83;25.57;;;;;;;13.08;100.00;100084.98;1520092;93;25359;-68
2022/10/25 07:36:33;;;;;;;42.70;26.07;;;;;;;13.20;100.00;100086.97;1564111;86;25694;-68
2022/10/25 07:39:00;;;;;;;45.17;25.97;;;;;;;13.30;100.00;100089.04;1627301;86;25573;-68
2022/10/25 07:41:28;;;;;;;37.40;22.15;;;;;;;13.37;100.00;100086.06;1627300;86;25642;-68
2022/10/25 07:43:56;;;;;;;48.13;25.43;;;;;;;13.48;100.00;100085.08;1615396;86;27270;-68
2022/10/25 07:46:23;;;;;;;43.30;25.32;;;;;;;13.63;100.00;100080.95;1627283;86;25704;-68
2022/10/25 07:48:53;;;;;;;42.17;22.93;;;;;;;13.89;100.00;100084.77;1627337;86;25532;-68
2022/10/25 07:51:21;;;;;;;42.33;25.12;;;;;;;14.10;100.00;100086.07;1627368;86;26207;-68
2022/10/25 07:53:48;;;;;;;43.28;23.90;;;;;;;14.19;100.00;100082.67;1627463;86;25456;-68
2022/10/25 07:56:18;;;;;;;44.65;23.73;;;;;;;14.36;100.00;100083.60;1628137;87;27296;-69
2022/10/25 07:58:45;;;;;;;;;;;;;;;14.65;100.00;100089.98;1630008;88;25642;-67
2022/10/25 08:01:17;;;;;;;40.10;21.50;;;;;;;14.85;100.00;100090.42;1627665;86;25205;-68
2022/10/25 08:03:45;;;;;;;39.00;23.87;;;;;;;14.98;100.00;100088.45;1620863;87;25603;-68
2022/10/25 08:06:12;;;;;;;37.08;22.52;;;;;;;15.09;100.00;100084.70;1616071;88;25702;-68
2022/10/25 08:08:40;;;;;;;38.30;23.05;;;;;;;15.24;100.00;100077.17;1625185;86;29369;-68
2022/10/25 08:11:07;;;;;;;32.23;20.88;;;;;;;15.39;100.00;100078.38;1626625;88;25618;-68
2022/10/25 08:13:36;;;;;;;29.77;19.52;;;;;;;15.41;100.00;100078.81;1624297;86;25682;-68
2022/10/25 08:16:06;;;;;;;35.63;20.57;;;;;;;15.39;100.00;100076.20;1627362;88;26298;-68
2022/10/25 08:18:35;;;;;;;33.05;20.75;;;;;;;15.35;100.00;100080.77;1620842;86;25578;-68
2022/10/25 08:21:03;;;;;;;27.97;18.47;;;;;;;15.31;100.00;100085.54;1627767;88;27830;-68
2022/10/25 08:23:32;;;;;;;29.40;19.45;;;;;;;15.27;100.00;100083.30;1627550;88;25580;-69
2022/10/25 08:26:00;;;;;;;26.12;17.10;;;;;;;15.23;100.00;100084.33;1627556;88;25585;-68
2022/10/25 08:28:32;;;;;;;27.17;18.07;;;;;;;15.12;100.00;100090.25;1627660;88;25571;-69
2022/10/25 08:30:59;;;;;;;29.70;17.57;;;;;;;15.09;100.00;100086.06;1627493;88;25629;-69
2022/10/25 08:33:27;;;;;;;31.90;18.62;;;;;;;15.05;100.00;100087.33;1627465;88;27222;-69
2022/10/25 08:35:54;;;;;;;30.90;17.05;;;;;;;15.00;100.00;100088.11;1626901;86;25668;-70
2022/10/25 08:38:22;;;;;;;26.55;17.55;;;;;;;14.94;100.00;100091.07;1627335;88;25324;-69
2022/10/25 08:41:13;;;;;;;29.00;17.67;;;;;;;14.93;100.00;100086.78;1627423;88;25633;-68
2022/10/25 08:44:07;;;;;;;27.93;17.65;;;;;;;14.98;100.00;100080.86;1627367;88;25569;-67
2022/10/25 08:46:55;;;;;;;25.80;18.02;;;;;;;15.03;100.00;100076.54;1626270;87;27749;-70
2022/10/25 08:49:46;;;;;;;31.97;18.98;;;;;;;15.11;100.00;100072.31;1626341;85;27238;-69
2022/10/25 08:52:40;;;;;;;23.75;17.42;;;;;;;15.22;100.00;100075.36;1627082;88;25630;-69
2022/10/25 08:55:18;;;;;;;31.02;18.23;;;;;;;15.46;100.00;100074.48;1626780;86;25603;-68
2022/10/25 08:57:49;;;;;;;23.75;16.77;;;;;;;15.56;100.00;100077.28;1626866;87;25576;-68
2022/10/25 09:00:22;;;;;;;28.80;17.32;;;;;;;15.54;100.00;100087.72;1627476;87;27406;-69
2022/10/25 09:02:59;;;;;;;24.67;17.10;;;;;;;15.49;100.00;100090.69;1627581;87;25534;-69
2022/10/25 09:05:52;;;;;;;27.22;17.20;;;;;;;15.50;100.00;100095.02;1607964;86;25443;-69
2022/10/25 09:08:43;;;;;;;27.00;16.50;;;;;;;15.45;100.00;100098.77;1626660;86;26277;-70
2022/10/25 09:11:43;;;;;;;30.45;17.95;;;;;;;15.40;100.00;100107.20;1626698;86;25406;-68
2022/10/25 09:14:40;;;;;;;22.17;16.95;;;;;;;15.32;100.00;100104.04;1626821;86;27241;-70
2022/10/25 09:17:22;;;;;;;24.90;17.45;;;;;;;15.30;100.00;100113.91;1627027;86;25551;-70
2022/10/25 09:20:36;;;;;;;26.10;16.57;;;;;;;15.24;100.00;100111.80;1627129;88;25422;-68
2022/10/25 09:23:31;;;;;;;25.15;16.73;;;;;;;15.14;100.00;100106.26;1614357;88;25758;-70
2022/10/25 09:26:09;;;;;;;23.90;16.30;;;;;;;15.06;100.00;100109.33;1622729;88;25586;-70
2022/10/25 09:28:51;;;;;;;25.00;16.50;;;;;;;15.02;100.00;100112.52;1613157;88;27330;-70
2022/10/25 09:31:22;;;;;;;22.02;16.62;;;;;;;14.99;100.00;100108.33;1627100;86;25606;-71
2022/10/25 09:33:58;;;;;;;23.35;15.90;;;;;;;14.99;100.00;100106.39;1626807;87;25375;-70
2022/10/25 09:36:29;;;;;;;20.88;15.90;;;;;;;15.05;100.00;100105.58;1607924;86;25844;-70
2022/10/25 09:39:01;;;;;;;26.68;18.23;;;;;;;15.24;100.00;100107.72;1627142;88;25623;-70
2022/10/25 09:41:37;;;;;;;31.85;17.92;;;;;;;15.45;100.00;100097.41;1626944;86;27288;-70
2022/10/25 09:44:22;;;;;;;32.83;17.37;;;;;;;15.58;100.00;100100.89;1625488;87;26073;-70
2022/10/25 09:46:57;;;;;;;25.55;17.70;;;;;;;15.71;100.00;100102.98;1608354;88;25562;-71
2022/10/25 09:49:57;;;;;;;24.80;16.10;;;;;;;15.85;100.00;100100.69;1617925;87;25640;-71
2022/10/25 09:52:41;;;;;;;21.17;14.78;;;;;;;16.02;100.00;100102.84;1637819;87;25381;-71
2022/10/25 09:55:44;;;;;;;19.87;15.30;;;;;;;16.19;100.00;100102.53;1604969;89;27274;-70
2022/10/25 09:58:19;;;;;;;23.32;15.78;;;;;;;16.54;100.00;100103.75;1632348;85;25610;-70
2022/10/25 10:00:49;;;;;;;20.35;15.35;;;;;;;16.68;100.00;100101.92;1632570;87;25573;-70
2022/10/25 10:03:18;;;;;;;18.98;14.75;;;;;;;16.98;100.00;100098.16;1632468;87;25681;-70
2022/10/25 10:05:58;;;;;;;19.70;13.30;;;;;;;17.50;100.00;100101.55;1632675;85;32932;-70
2022/10/25 10:08:27;;;;;;;18.77;13.10;;;;;;;17.57;97.87;100096.80;1632461;87;27802;-71
2022/10/25 10:10:55;;;;;;;22.22;11.50;;;;;;;17.44;94.93;100102.43;1632888;87;25693;-70
2022/10/25 10:13:37;;;;;;;17.85;11.60;;;;;;;17.29;93.03;100113.64;1655378;86;25608;-72
2022/10/25 10:16:26;;;;;;;19.55;11.50;;;;;;;17.12;92.59;100114.84;1647625;86;25805;-70
2022/10/25 10:19:25;;;;;;;15.40;11.33;;;;;;;16.93;92.20;100115.61;1622634;88;25626;-71
2022/10/25 10:21:56;;;;;;;13.98;11.22;;;;;;;16.79;92.55;100109.80;1580821;90;27299;-69
2022/10/25 10:24:31;;;;;;;15.78;11.05;;;;;;;16.68;92.15;100113.63;1578857;90;25604;-70
2022/10/25 10:27:09;;;;;;;15.32;10.75;;;;;;;16.60;93.16;100115.97;1572767;91;25667;-71
2022/10/25 10:29:59;;;;;;;15.95;10.28;;;;;;;16.57;93.16;100113.39;1573007;91;26274;-70
2022/10/25 10:32:36;;;;;;;18.32;11.33;;;;;;;16.54;93.65;100110.00;1570721;91;25648;-69
2022/10/25 10:35:09;;;;;;;15.05;11.60;;;;;;;16.51;93.34;100112.06;1567967;91;27327;-68
2022/10/25 10:37:36;;;;;;;15.10;11.57;;;;;;;16.63;97.24;100107.08;1561023;91;25685;-71
2022/10/25 10:40:09;;;;;;;17.67;12.23;;;;;;;16.79;97.31;100106.48;1566804;91;25751;-66
2022/10/25 10:42:41;;;;;;;22.10;11.90;;;;;;;17.17;99.24;100106.36;1568110;91;25627;-68
2022/10/25 10:45:14;;;;;;;15.83;12.40;;;;;;;17.65;99.59;100102.05;1551309;91;25640;-68
2022/10/25 10:47:53;;;;;;;15.72;11.28;;;;;;;18.11;100.00;100093.14;1534579;91;27754;-68
2022/10/25 10:50:27;;;;;;;20.52;12.30;;;;;;;18.61;99.13;100100.81;1594774;87;26369;-65
2022/10/25 10:53:02;;;;;;;23.55;11.05;;;;;;;19.00;97.73;100099.25;1634173;87;25534;-65
2022/10/25 10:55:36;;;;;;;20.23;12.03;;;;;;;19.34;93.02;100099.85;1683380;84;25618;-66
2022/10/25 10:58:27;;;;;;;19.42;10.98;;;;;;;19.46;91.57;100100.19;1686737;84;25602;-66
2022/10/25 11:01:02;;;;;;;17.25;10.72;;;;;;;19.70;90.24;100109.30;1673077;83;27204;-66
2022/10/25 11:03:47;;;;;;;18.85;10.40;;;;;;;19.74;87.52;100106.59;1657464;84;25498;-67
2022/10/25 11:06:30;;;;;;;17.50;11.10;;;;;;;19.66;86.08;100109.83;1687377;84;25638;-67
2022/10/25 11:09:15;;;;;;;19.45;10.43;;;;;;;19.54;83.29;100110.09;1686744;83;25643;-68
2022/10/25 11:12:13;;;;;;;21.07;10.63;;;;;;;19.48;84.66;100108.83;1686875;83;25361;-67
2022/10/25 11:14:41;;;;;;;14.35;9.78;;;;;;;19.66;85.07;100110.42;1687272;83;27202;-66
2022/10/25 11:17:18;;;;;;;19.25;10.65;;;;;;;19.92;86.01;100104.05;1660061;84;27142;-67
2022/10/25 11:20:00;;;;;;;18.70;9.00;;;;;;;20.24;88.63;100103.56;1677108;84;25532;-66
2022/10/25 11:23:14;;;;;;;11.90;8.63;;;;;;;20.89;86.74;100105.66;1681054;85;25691;-66
2022/10/25 11:25:52;;;;;;;24.70;15.80;;;;;;;21.10;82.53;100115.79;1623982;87;25396;-66
2022/10/25 11:28:42;;;;;;;17.23;9.13;;;;;;;21.06;80.53;100107.49;1625343;87;29605;-66
2022/10/25 11:31:48;;;;;;;16.80;8.73;;;;;;;21.07;79.69;100111.23;1625322;86;25616;-67
2022/10/25 11:34:53;;;;;;;11.43;8.13;;;;;;;21.12;78.89;100107.94;1623402;86;25668;-66